Time;durP1;ratioP1;P1;durP2;ratioP2;P2;SDS_P1;SDS_P2;PMS_P1;PMS_P2;Temp;Humidity;BMP_temperature;BMP_pressure;BME280_temperature;BME280_humidity;BME280_pressure;Samples;Min_cycle;Max_cycle;Signal;HPM_P1;HPM_P2
2023/02/12 00:00:44;;;;;;;1999.90;999.90;;;6.30;99.90;;;;;;6748866;87;20197;-81
2023/02/12 00:10:44;;;;;;;1999.90;999.90;;;6.30;99.90;;;;;;6761097;87;20184;-80
2023/02/12 00:20:45;;;;;;;1999.90;999.90;;;6.30;99.90;;;;;;6758928;88;20583;-81
2023/02/12 00:30:45;;;;;;;1999.90;999.90;;;6.30;99.90;;;;;;6761128;88;20652;-80
2023/02/12 00:40:46;;;;;;;1999.90;999.90;;;6.20;99.90;;;;;;6762139;88;20188;-80
2023/02/12 00:50:47;;;;;;;1999.90;999.90;;;6.40;99.90;;;;;;6759486;88;20194;-81
2023/02/12 01:00:49;;;;;;;1999.90;999.90;;;6.20;99.90;;;;;;6748850;88;20200;-81
2023/02/12 01:10:58;;;;;;;1999.90;999.90;;;6.20;99.90;;;;;;6757929;88;20328;-81
2023/02/12 01:21:00;;;;;;;1999.90;999.90;;;6.30;99.90;;;;;;6766758;87;20193;-81
2023/02/12 01:31:00;;;;;;;1999.90;999.90;;;6.20;99.90;;;;;;6766655;88;20314;-81
2023/02/12 01:41:06;;;;;;;1999.90;999.90;;;6.20;99.90;;;;;;6766017;88;20749;-81
2023/02/12 01:51:09;;;;;;;1999.90;999.90;;;6.10;99.90;;;;;;6764409;88;20203;-81
2023/02/12 02:01:20;;;;;;;1999.90;999.90;;;6.10;99.90;;;;;;6765734;88;20216;-81
2023/02/12 02:21:58;;;;;;;1999.90;999.90;;;6.20;99.90;;;;;;6771332;87;21456;-81
2023/02/12 02:32:09;;;;;;;1999.90;999.90;;;6.20;99.90;;;;;;6766183;88;20263;-81
2023/02/12 02:42:32;;;;;;;1999.90;999.90;;;6.20;99.90;;;;;;6762519;88;20176;-80
2023/02/12 02:53:07;;;;;;;1999.90;999.90;;;6.10;99.90;;;;;;6761603;88;20249;-80
2023/02/12 03:03:22;;;;;;;1999.90;999.90;;;6.10;99.90;;;;;;6754864;88;20249;-81
2023/02/12 03:13:36;;;;;;;1999.90;999.90;;;6.20;99.90;;;;;;6759749;88;20245;-81
2023/02/12 03:23:42;;;;;;;1999.90;999.90;;;6.10;99.90;;;;;;6772311;87;20377;-81
2023/02/12 03:33:43;;;;;;;1999.90;999.90;;;6.10;99.90;;;;;;6765864;88;20227;-80
2023/02/12 03:43:49;;;;;;;1999.90;999.90;;;6.20;99.90;;;;;;6763962;88;20203;-81
2023/02/12 03:53:50;;;;;;;;;;;6.20;99.90;;;;;;6758594;88;20562;-81
2023/02/12 04:03:51;;;;;;;1999.90;999.90;;;6.20;99.90;;;;;;6757382;87;20066;-81
2023/02/12 04:13:54;;;;;;;1999.90;999.90;;;6.20;99.90;;;;;;6764370;88;20209;-80
2023/02/12 04:24:13;;;;;;;1999.90;999.90;;;6.10;99.90;;;;;;6762485;88;20193;-81
2023/02/12 04:34:33;;;;;;;1999.90;999.90;;;6.20;99.90;;;;;;6762059;88;20225;-81
2023/02/12 04:44:41;;;;;;;1999.90;999.90;;;6.20;99.90;;;;;;6760928;88;20220;-81
2023/02/12 04:54:42;;;;;;;1999.90;999.90;;;6.10;99.90;;;;;;6767247;88;20172;-81
2023/02/12 05:04:42;;;;;;;1999.90;999.90;;;6.10;99.90;;;;;;6767115;88;20658;-80
2023/02/12 05:14:43;;;;;;;1999.90;999.90;;;6.10;99.90;;;;;;6767518;88;20256;-81
2023/02/12 05:24:44;;;;;;;1999.90;999.90;;;6.10;99.90;;;;;;6762584;88;20307;-80
2023/02/12 05:34:44;;;;;;;1999.90;999.90;;;6.00;99.90;;;;;;6770324;87;20197;-81
2023/02/12 05:44:45;;;;;;;1999.90;999.90;;;6.00;99.90;;;;;;6760402;87;20181;-81
2023/02/12 05:54:49;;;;;;;1999.90;999.90;;;6.10;99.90;;;;;;6766594;88;20193;-82
2023/02/12 06:04:49;;;;;;;1999.90;999.90;;;6.00;99.90;;;;;;6761872;77;20704;-77
2023/02/12 06:14:50;;;;;;;1999.90;999.90;;;6.10;99.90;;;;;;6749037;88;20206;-77
2023/02/12 06:24:50;;;;;;;1999.90;999.90;;;6.00;99.90;;;;;;6734930;88;20189;-77
2023/02/12 06:34:51;;;;;;;1999.90;999.90;;;6.10;99.90;;;;;;6748670;88;20220;-78
2023/02/12 06:44:51;;;;;;;1999.90;999.90;;;6.20;99.90;;;;;;6738255;88;20317;-77
2023/02/12 06:54:52;;;;;;;1999.90;999.90;;;6.20;99.90;;;;;;6736128;88;20298;-77
2023/02/12 07:04:52;;;;;;;1999.90;999.90;;;6.20;99.90;;;;;;6737408;88;20217;-77
2023/02/12 07:14:53;;;;;;;1999.90;999.90;;;6.20;99.90;;;;;;6737039;88;20232;-78
2023/02/12 07:24:53;;;;;;;1999.90;999.90;;;6.20;99.90;;;;;;6733778;88;20207;-77
2023/02/12 07:34:54;;;;;;;1999.90;999.90;;;6.20;99.90;;;;;;6730964;88;20967;-77
2023/02/12 07:44:54;;;;;;;1999.90;999.90;;;6.30;99.90;;;;;;6731180;88;20207;-77
2023/02/12 07:54:55;;;;;;;1999.90;999.90;;;6.30;99.90;;;;;;6735164;88;20240;-77
2023/02/12 08:04:56;;;;;;;1999.90;999.90;;;6.40;99.90;;;;;;6743560;88;20181;-79
2023/02/12 08:14:57;;;;;;;1999.90;999.90;;;6.60;99.90;;;;;;6743724;88;20191;-78
2023/02/12 08:24:57;;;;;;;1999.90;999.90;;;6.70;99.90;;;;;;6747385;88;20186;-76
2023/02/12 08:34:58;;;;;;;1999.90;999.90;;;6.80;99.90;;;;;;6739253;88;20184;-78
2023/02/12 08:44:58;;;;;;;1999.90;999.90;;;7.00;99.90;;;;;;6733268;88;20200;-77
2023/02/12 08:54:59;;;;;;;1999.90;999.90;;;7.30;99.90;;;;;;6748182;88;20188;-78
2023/02/12 09:05:00;;;;;;;1999.90;999.90;;;7.40;99.90;;;;;;6746187;88;20295;-78
2023/02/12 09:15:00;;;;;;;1999.90;999.90;;;7.60;99.90;;;;;;6742296;88;20612;-78
2023/02/12 09:25:01;;;;;;;1999.90;999.90;;;7.80;99.90;;;;;;6741139;88;21521;-78
2023/02/12 09:35:01;;;;;;;1999.90;999.90;;;8.00;99.90;;;;;;6739412;88;20224;-77
2023/02/12 09:45:15;;;;;;;1999.90;999.90;;;8.20;99.90;;;;;;6745994;88;20231;-77
2023/02/12 09:55:18;;;;;;;1999.90;999.90;;;8.30;99.90;;;;;;6740533;88;20197;-78
2023/02/12 10:05:33;;;;;;;1999.90;999.90;;;8.40;99.90;;;;;;6740736;88;20188;-76
2023/02/12 10:15:38;;;;;;;1999.90;999.90;;;8.80;99.90;;;;;;6736359;88;20807;-77
2023/02/12 10:25:54;;;;;;;1999.90;999.90;;;8.90;99.90;;;;;;6742607;88;20649;-78
2023/02/12 10:36:24;;;;;;;1999.90;999.90;;;9.40;99.90;;;;;;6750094;88;20177;-79
2023/02/12 10:46:29;;;;;;;1999.90;999.90;;;9.60;99.90;;;;;;6744246;88;20214;-77
2023/02/12 10:56:30;;;;;;;1999.90;999.90;;;9.90;99.90;;;;;;6740512;88;20275;-77
2023/02/12 11:06:31;;;;;;;1999.90;999.90;;;10.20;99.90;;;;;;6741928;88;20268;-78
2023/02/12 11:16:35;;;;;;;1999.90;999.90;;;10.50;99.90;;;;;;6734224;88;20218;-77
2023/02/12 11:26:36;;;;;;;1999.90;999.90;;;10.80;99.90;;;;;;6737520;88;20206;-77
2023/02/12 11:36:42;;;;;;;1999.90;999.90;;;11.30;99.90;;;;;;6737572;88;20227;-76
2023/02/12 11:47:08;;;;;;;1999.90;999.90;;;11.60;99.90;;;;;;6732508;88;20181;-77
2023/02/12 11:57:34;;;;;;;1999.90;999.90;;;11.90;99.90;;;;;;6735652;88;20258;-77
2023/02/12 12:07:37;;;;;;;1999.90;999.90;;;11.70;99.90;;;;;;6725676;88;20338;-77
2023/02/12 12:28:51;;;;;;;1999.90;999.90;;;11.70;99.90;;;;;;6729873;88;20224;-77
2023/02/12 12:39:10;;;;;;;1999.90;999.90;;;11.40;99.90;;;;;;6725521;88;20200;-77
2023/02/12 12:49:23;;;;;;;1999.90;999.90;;;11.40;99.90;;;;;;6731923;88;20284;-77
2023/02/12 12:59:42;;;;;;;1999.90;999.90;;;11.50;99.90;;;;;;6741374;88;20198;-77
2023/02/12 13:09:52;;;;;;;1999.90;999.90;;;11.30;99.90;;;;;;6736091;88;20186;-75
2023/02/12 13:20:00;;;;;;;1999.90;999.90;;;11.60;99.90;;;;;;6753192;88;20177;-77
2023/02/12 13:30:10;;;;;;;1999.90;999.90;;;11.50;99.90;;;;;;6742031;88;20263;-79
2023/02/12 13:40:17;;;;;;;1999.90;999.90;;;11.70;99.90;;;;;;6737419;88;21119;-77
2023/02/12 13:50:40;;;;;;;1999.90;999.90;;;11.70;99.90;;;;;;6738322;88;20177;-78
2023/02/12 14:00:50;;;;;;;1999.90;999.90;;;11.60;99.90;;;;;;6742719;88;20201;-76
2023/02/12 14:11:16;;;;;;;1999.90;999.90;;;11.40;99.90;;;;;;6738191;88;21049;-77
2023/02/12 14:21:18;;;;;;;1999.90;999.90;;;11.20;99.90;;;;;;6741202;88;20176;-77
2023/02/12 14:31:18;;;;;;;1999.90;999.90;;;11.00;99.90;;;;;;6740243;88;20230;-77
2023/02/12 14:41:36;;;;;;;1999.90;999.90;;;11.10;99.90;;;;;;6734811;88;20299;-77
2023/02/12 14:51:59;;;;;;;1999.90;999.90;;;11.00;99.90;;;;;;6739942;88;20311;-78
2023/02/12 15:02:03;;;;;;;1999.90;999.90;;;10.80;99.90;;;;;;6731047;88;20686;-78
2023/02/12 15:12:31;;;;;;;1999.90;999.90;;;10.90;99.90;;;;;;6741065;88;20204;-78
2023/02/12 15:22:34;;;;;;;1999.90;999.90;;;10.80;99.90;;;;;;6746245;88;20209;-77
2023/02/12 15:32:37;;;;;;;1999.90;999.90;;;10.70;99.90;;;;;;6746122;88;20332;-78
2023/02/12 15:42:39;;;;;;;1999.90;999.90;;;10.70;99.90;;;;;;6736930;88;20237;-77
2023/02/12 15:52:43;;;;;;;1999.90;999.90;;;10.60;99.90;;;;;;6742894;88;20186;-77
2023/02/12 16:02:51;;;;;;;1999.90;999.90;;;10.50;99.90;;;;;;6738898;88;20294;-77
2023/02/12 16:12:52;;;;;;;1999.90;999.90;;;10.50;99.90;;;;;;6738321;88;20184;-76
2023/02/12 16:22:54;;;;;;;1999.90;999.90;;;10.30;99.90;;;;;;6743626;88;20201;-78
2023/02/12 16:32:56;;;;;;;1999.90;999.90;;;10.50;99.90;;;;;;6743128;88;20185;-77
2023/02/12 16:43:03;;;;;;;1999.90;999.90;;;10.20;99.90;;;;;;6745966;88;20196;-77
2023/02/12 16:53:06;;;;;;;1999.90;999.90;;;10.20;99.90;;;;;;6740504;88;20273;-77
2023/02/12 17:03:12;;;;;;;1999.90;999.90;;;10.30;99.90;;;;;;6737594;88;20221;-77
2023/02/12 17:13:14;;;;;;;1999.90;999.90;;;10.30;99.90;;;;;;6740136;88;20255;-77
2023/02/12 17:23:14;;;;;;;1999.90;999.90;;;10.10;99.90;;;;;;6736583;88;20215;-77
2023/02/12 17:33:15;;;;;;;1999.90;999.90;;;9.90;99.90;;;;;;6742896;88;20169;-78
2023/02/12 17:43:16;;;;;;;1999.90;999.90;;;9.90;99.90;;;;;;6752065;87;20185;-82
2023/02/12 17:53:16;;;;;;;1999.90;999.90;;;9.90;99.90;;;;;;6741837;88;20215;-78
2023/02/12 18:03:17;;;;;;;1999.90;999.90;;;9.90;99.90;;;;;;6745465;78;20663;-78
2023/02/12 18:13:17;;;;;;;1999.90;999.90;;;9.90;99.90;;;;;;6734365;88;20679;-78
2023/02/12 18:23:18;;;;;;;1999.90;999.90;;;9.80;99.90;;;;;;6722379;88;20262;-77
2023/02/12 18:33:18;;;;;;;1999.90;999.90;;;9.80;99.90;;;;;;6721884;88;20326;-77
2023/02/12 18:43:19;;;;;;;1999.90;999.90;;;9.70;99.90;;;;;;6725017;88;20231;-77
2023/02/12 18:53:19;;;;;;;1999.90;999.90;;;9.80;99.90;;;;;;6725717;88;20221;-78
2023/02/12 19:03:20;;;;;;;1999.90;999.90;;;9.70;99.90;;;;;;6725547;88;20605;-78
2023/02/12 19:13:20;;;;;;;1999.90;999.90;;;9.60;99.90;;;;;;6718387;88;20232;-80
2023/02/12 19:23:21;;;;;;;1999.90;999.90;;;9.60;99.90;;;;;;6722706;88;20189;-78
2023/02/12 19:33:22;;;;;;;1999.90;999.90;;;9.60;99.90;;;;;;6722681;88;20216;-79
2023/02/12 19:43:22;;;;;;;1999.90;999.90;;;9.50;99.90;;;;;;6724200;88;20194;-79
2023/02/12 19:53:23;;;;;;;1999.90;999.90;;;9.50;99.90;;;;;;6707443;88;20202;-78
2023/02/12 20:03:25;;;;;;;1999.90;999.90;;;9.50;99.90;;;;;;6707539;88;20201;-78
2023/02/12 20:13:26;;;;;;;1999.90;999.90;;;9.50;99.90;;;;;;6708462;88;20178;-80
2023/02/12 20:23:26;;;;;;;1999.90;999.90;;;9.40;99.90;;;;;;6708027;88;20194;-79
2023/02/12 20:33:27;;;;;;;1999.90;999.90;;;9.50;99.90;;;;;;6707097;88;20232;-79
2023/02/12 20:43:29;;;;;;;1999.90;999.90;;;9.40;99.90;;;;;;6709100;88;20672;-80
2023/02/12 20:53:31;;;;;;;1999.90;999.90;;;9.40;99.90;;;;;;6709616;88;20212;-79
2023/02/12 21:03:32;;;;;;;1999.90;999.90;;;9.40;99.90;;;;;;6714005;88;20190;-80
2023/02/12 21:13:33;;;;;;;1999.90;999.90;;;9.20;99.90;;;;;;6729254;88;20190;-80
2023/02/12 21:23:34;;;;;;;1999.90;999.90;;;9.20;99.90;;;;;;6735702;88;20711;-79
2023/02/12 21:33:39;;;;;;;1999.90;999.90;;;9.20;99.90;;;;;;6745070;88;20255;-79
2023/02/12 21:43:41;;;;;;;1999.90;999.90;;;9.20;99.90;;;;;;6756954;88;20226;-80
2023/02/12 21:53:42;;;;;;;1999.90;999.90;;;9.10;99.90;;;;;;6754496;88;20217;-79
2023/02/12 22:03:43;;;;;;;1999.90;999.90;;;9.20;99.90;;;;;;6754691;88;20239;-80
2023/02/12 22:13:44;;;;;;;1999.90;999.90;;;9.20;99.90;;;;;;6755230;88;20306;-80
2023/02/12 22:23:45;;;;;;;1999.90;999.90;;;9.10;99.90;;;;;;6739570;88;20236;-79
2023/02/12 22:33:47;;;;;;;1999.90;999.90;;;9.00;99.90;;;;;;6738140;88;20210;-80
2023/02/12 22:43:48;;;;;;;1999.90;999.90;;;9.00;99.90;;;;;;6731610;88;20727;-79
2023/02/12 22:53:49;;;;;;;1999.90;999.90;;;9.00;99.90;;;;;;6733711;88;20690;-80
2023/02/12 23:03:50;;;;;;;1999.90;999.90;;;8.90;99.90;;;;;;6714804;88;20214;-80
2023/02/12 23:13:51;;;;;;;1999.90;999.90;;;8.90;99.90;;;;;;6714960;88;20354;-80
2023/02/12 23:23:52;;;;;;;1999.90;999.90;;;9.00;99.90;;;;;;6713252;88;20674;-80
2023/02/12 23:33:52;;;;;;;1999.90;999.90;;;9.00;99.90;;;;;;6714222;88;20194;-80
2023/02/12 23:43:53;;;;;;;1999.90;999.90;;;9.00;99.90;;;;;;6714250;88;20271;-79
2023/02/12 23:53:53;;;;;;;1999.90;999.90;;;9.00;99.90;;;;;;6713914;88;20374;-79
